createdAt,value
2023-03-19T00:01:20.775Z,46.33
2023-03-19T00:03:48.886Z,46.47
2023-03-19T00:06:16.974Z,46.60
2023-03-19T00:08:45.478Z,46.63
2023-03-19T00:11:16.746Z,46.86
2023-03-19T00:13:44.847Z,47.01
2023-03-19T00:16:15.208Z,46.97
2023-03-19T00:18:43.245Z,47.12
2023-03-19T00:21:11.265Z,47.30
2023-03-19T00:23:39.662Z,47.35
2023-03-19T00:26:08.417Z,47.56
2023-03-19T00:28:36.930Z,47.58
2023-03-19T00:31:16.816Z,47.54
2023-03-19T00:33:44.895Z,47.63
2023-03-19T00:36:15.755Z,47.76
2023-03-19T00:38:45.821Z,47.96
2023-03-19T00:41:19.072Z,48.12
2023-03-19T00:43:47.547Z,48.20
2023-03-19T00:46:15.965Z,48.26
2023-03-19T00:48:45.596Z,48.40
2023-03-19T00:51:13.458Z,48.31
2023-03-19T00:53:43.670Z,48.27
2023-03-19T00:56:17.874Z,48.38
2023-03-19T00:58:48.108Z,48.31
2023-03-19T01:01:18.264Z,48.45
2023-03-19T01:03:46.637Z,48.58
2023-03-19T01:06:14.910Z,48.57
2023-03-19T01:08:43.038Z,48.63
2023-03-19T01:11:14.870Z,48.71
2023-03-19T01:13:43.414Z,48.72
2023-03-19T01:16:11.836Z,48.84
2023-03-19T01:18:40.228Z,48.96
2023-03-19T01:21:08.742Z,49.00
2023-03-19T01:23:42.955Z,49.08
2023-03-19T01:26:11.352Z,49.18
2023-03-19T01:28:39.500Z,49.23
2023-03-19T01:31:08.732Z,49.38
2023-03-19T01:33:55.501Z,49.50
2023-03-19T01:36:41.916Z,49.52
2023-03-19T01:39:11.134Z,49.57
2023-03-19T01:41:38.751Z,49.75
2023-03-19T01:44:38.442Z,49.76
2023-03-19T01:47:40.917Z,49.96
2023-03-19T01:50:39.575Z,50.24
2023-03-19T01:53:24.269Z,50.38
2023-03-19T01:56:24.259Z,50.53
2023-03-19T01:59:06.868Z,50.62
2023-03-19T02:01:56.989Z,50.80
2023-03-19T02:04:31.301Z,50.76
2023-03-19T02:07:02.494Z,50.95
2023-03-19T02:09:34.925Z,50.97
2023-03-19T02:12:04.202Z,51.06
2023-03-19T02:14:34.955Z,51.08
2023-03-19T02:17:03.230Z,51.13
2023-03-19T02:19:52.410Z,51.15
2023-03-19T02:22:26.009Z,51.23
2023-03-19T02:25:14.985Z,51.46
2023-03-19T02:27:43.878Z,51.43
2023-03-19T02:30:43.820Z,51.31
2023-03-19T02:33:17.852Z,51.34
2023-03-19T02:35:49.967Z,51.31
2023-03-19T02:38:22.306Z,51.48
2023-03-19T02:41:00.311Z,51.46
2023-03-19T02:43:33.689Z,51.56
2023-03-19T02:46:04.287Z,51.45
2023-03-19T02:48:32.900Z,51.52
2023-03-19T02:51:04.991Z,51.58
2023-03-19T02:53:35.952Z,51.54
2023-03-19T02:56:04.704Z,51.58
2023-03-19T02:58:32.823Z,51.60
2023-03-19T03:01:01.917Z,51.76
2023-03-19T03:03:31.077Z,51.76
2023-03-19T03:05:59.476Z,51.84
2023-03-19T03:08:28.018Z,51.88
2023-03-19T03:10:56.637Z,51.94
2023-03-19T03:13:25.676Z,51.85
2023-03-19T03:15:54.076Z,52.00
2023-03-19T03:18:22.001Z,52.08
2023-03-19T03:20:53.425Z,52.31
2023-03-19T03:23:22.748Z,52.33
2023-03-19T03:25:52.905Z,52.39
2023-03-19T03:28:22.779Z,52.36
2023-03-19T03:30:51.375Z,52.41
2023-03-19T03:33:19.758Z,52.48
2023-03-19T03:35:50.628Z,52.49
2023-03-19T03:38:21.498Z,52.61
2023-03-19T03:40:55.957Z,52.77
2023-03-19T03:43:26.461Z,52.87
2023-03-19T03:45:54.809Z,53.01
2023-03-19T03:48:26.416Z,52.95
2023-03-19T03:50:54.478Z,52.97
2023-03-19T03:53:26.099Z,52.98
2023-03-19T03:55:53.953Z,52.97
2023-03-19T03:58:24.555Z,52.89
2023-03-19T04:00:54.037Z,52.96
2023-03-19T04:03:23.795Z,53.06
2023-03-19T04:05:51.484Z,53.11
2023-03-19T04:08:19.464Z,53.03
2023-03-19T04:10:47.572Z,53.03
2023-03-19T04:13:22.380Z,53.16
2023-03-19T04:15:53.554Z,53.18
2023-03-19T04:18:22.439Z,53.11
2023-03-19T04:20:55.092Z,53.08
2023-03-19T04:23:28.133Z,53.00
2023-03-19T04:26:07.065Z,52.82
2023-03-19T04:28:35.303Z,52.80
2023-03-19T04:31:08.856Z,52.92
2023-03-19T04:33:39.727Z,52.95
2023-03-19T04:36:14.055Z,52.95
2023-03-19T04:38:44.855Z,52.92
2023-03-19T04:41:15.906Z,53.03
2023-03-19T04:43:52.210Z,53.17
2023-03-19T04:46:21.113Z,53.03
2023-03-19T04:48:54.469Z,52.93
2023-03-19T04:51:25.879Z,53.16
2023-03-19T04:53:54.536Z,53.38
2023-03-19T04:56:25.189Z,53.34
2023-03-19T04:58:54.272Z,53.56
2023-03-19T05:01:22.868Z,53.52
2023-03-19T05:04:20.298Z,53.53
2023-03-19T05:06:53.606Z,53.63
2023-03-19T05:09:24.921Z,53.75
2023-03-19T05:11:53.277Z,53.65
2023-03-19T05:14:23.235Z,53.65
2023-03-19T05:17:29.964Z,53.78
2023-03-19T05:20:21.691Z,53.86
2023-03-19T05:22:56.731Z,53.82
2023-03-19T05:25:35.079Z,53.90
2023-03-19T05:28:06.953Z,53.94
2023-03-19T05:30:38.176Z,53.99
2023-03-19T05:33:12.324Z,53.94
2023-03-19T05:35:45.434Z,53.89
2023-03-19T05:38:20.198Z,54.08
2023-03-19T05:40:54.766Z,54.12
2023-03-19T05:43:32.172Z,54.16
2023-03-19T05:46:02.802Z,54.16
2023-03-19T05:48:33.111Z,54.12
2023-03-19T05:51:07.228Z,54.07
2023-03-19T05:53:39.643Z,54.07
2023-03-19T05:56:26.743Z,54.23
2023-03-19T05:59:10.204Z,54.33
2023-03-19T06:01:41.498Z,54.11
2023-03-19T06:04:10.126Z,53.81
2023-03-19T06:06:38.490Z,53.90
2023-03-19T06:09:06.668Z,53.96
2023-03-19T06:11:40.144Z,53.77
2023-03-19T06:14:28.444Z,53.82
2023-03-19T06:17:14.853Z,53.71
2023-03-19T06:19:42.952Z,53.50
2023-03-19T06:22:11.705Z,53.28
2023-03-19T06:24:40.122Z,53.04
2023-03-19T06:27:09.283Z,52.78
2023-03-19T06:29:37.412Z,52.66
2023-03-19T06:32:16.579Z,52.63
2023-03-19T06:34:45.318Z,52.26
2023-03-19T06:37:13.578Z,52.05
2023-03-19T06:39:41.771Z,51.72
2023-03-19T06:42:09.903Z,51.55
2023-03-19T06:44:37.995Z,51.37
2023-03-19T06:47:08.172Z,51.46
2023-03-19T06:49:37.061Z,51.16
2023-03-19T06:52:05.652Z,50.91
2023-03-19T06:54:34.749Z,50.37
2023-03-19T06:57:04.268Z,50.08
2023-03-19T06:59:34.692Z,50.12
2023-03-19T07:02:03.134Z,50.56
2023-03-19T07:04:31.497Z,50.22
2023-03-19T07:06:59.586Z,49.11
2023-03-19T07:09:27.773Z,48.12
2023-03-19T07:11:55.842Z,47.75
2023-03-19T07:14:24.531Z,47.45
2023-03-19T07:16:55.569Z,47.46
2023-03-19T07:19:23.559Z,47.43
2023-03-19T07:21:53.807Z,46.55
2023-03-19T07:24:22.568Z,46.61
2023-03-19T07:26:51.470Z,46.60
2023-03-19T07:29:24.775Z,46.48
2023-03-19T07:31:55.617Z,46.60
2023-03-19T07:34:24.265Z,46.15
2023-03-19T07:36:54.797Z,46.00
2023-03-19T07:39:22.973Z,46.09
2023-03-19T07:41:51.849Z,45.52
2023-03-19T07:44:26.217Z,45.08
2023-03-19T07:46:54.794Z,45.22
2023-03-19T07:49:23.878Z,44.91
2023-03-19T07:51:52.190Z,44.88
2023-03-19T07:54:23.174Z,44.48
2023-03-19T07:56:54.074Z,44.36
2023-03-19T07:59:25.602Z,44.36
2023-03-19T08:01:53.958Z,43.80
2023-03-19T08:04:22.910Z,43.49
2023-03-19T08:06:52.673Z,43.82
2023-03-19T08:09:21.004Z,43.57
2023-03-19T08:11:52.501Z,42.70
2023-03-19T08:14:22.325Z,42.63
2023-03-19T08:16:55.520Z,42.53
2023-03-19T08:19:32.216Z,42.64
2023-03-19T08:22:00.629Z,42.58
2023-03-19T08:24:29.106Z,42.58
2023-03-19T08:27:03.306Z,42.58
2023-03-19T08:29:32.277Z,42.51
2023-03-19T08:32:01.229Z,42.45
2023-03-19T08:34:29.770Z,41.71
2023-03-19T08:36:58.461Z,41.97
2023-03-19T08:39:37.294Z,41.93
2023-03-19T08:42:10.086Z,41.63
2023-03-19T08:44:39.444Z,41.07
2023-03-19T08:47:09.426Z,41.10
2023-03-19T08:49:42.035Z,40.81
2023-03-19T08:52:15.097Z,40.77
2023-03-19T08:54:46.314Z,39.99
2023-03-19T08:57:15.119Z,39.31
2023-03-19T08:59:43.821Z,38.63
2023-03-19T09:02:18.710Z,38.02
2023-03-19T09:04:54.824Z,36.80
2023-03-19T09:07:23.124Z,36.80
2023-03-19T09:09:54.631Z,36.05
2023-03-19T09:12:23.513Z,35.83
2023-03-19T09:14:52.424Z,35.13
2023-03-19T09:17:21.147Z,35.12
2023-03-19T09:19:59.757Z,34.33
2023-03-19T09:22:30.869Z,34.72
2023-03-19T09:24:59.288Z,34.79
2023-03-19T09:27:28.365Z,34.41
2023-03-19T09:29:57.752Z,34.10
2023-03-19T09:32:25.595Z,34.35
2023-03-19T09:34:54.999Z,34.40
2023-03-19T09:37:25.565Z,33.69
2023-03-19T09:39:53.732Z,33.46
2023-03-19T09:42:50.227Z,32.76
2023-03-19T09:45:23.946Z,31.23
2023-03-19T09:48:01.062Z,31.87
2023-03-19T09:50:39.066Z,32.20
2023-03-19T09:53:47.144Z,31.76
2023-03-19T09:56:19.118Z,31.69
2023-03-19T09:58:47.809Z,30.34
2023-03-19T10:01:33.365Z,30.55
2023-03-19T10:04:32.751Z,31.03
2023-03-19T10:07:21.904Z,30.87
2023-03-19T10:10:18.082Z,31.06
2023-03-19T10:12:49.534Z,30.67
2023-03-19T10:15:35.061Z,31.27
2023-03-19T10:18:32.478Z,30.99
2023-03-19T10:21:18.592Z,30.44
2023-03-19T10:24:15.982Z,30.30
2023-03-19T10:26:47.384Z,30.41
2023-03-19T10:29:20.391Z,30.51
2023-03-19T10:32:05.612Z,30.99
2023-03-19T10:34:42.996Z,30.59
2023-03-19T10:37:30.122Z,30.06
2023-03-19T10:40:00.492Z,30.04
2023-03-19T10:43:01.596Z,30.17
2023-03-19T10:45:39.311Z,30.00
2023-03-19T10:48:20.595Z,29.24
2023-03-19T10:50:54.958Z,29.57
2023-03-19T10:53:37.677Z,29.00
2023-03-19T10:56:29.901Z,27.87
2023-03-19T10:59:20.946Z,28.07
2023-03-19T11:01:49.840Z,27.87
2023-03-19T11:04:24.211Z,28.78
2023-03-19T11:07:13.978Z,28.61
2023-03-19T11:09:50.645Z,28.14
2023-03-19T11:12:37.232Z,28.65
2023-03-19T11:15:26.350Z,28.50
2023-03-19T11:18:01.130Z,28.25
2023-03-19T11:20:33.553Z,27.95
2023-03-19T11:23:11.712Z,29.00
2023-03-19T11:25:47.588Z,29.35
2023-03-19T11:28:22.501Z,29.71
2023-03-19T11:31:19.577Z,29.64
2023-03-19T11:34:18.328Z,29.86
2023-03-19T11:37:15.212Z,30.42
2023-03-19T11:40:37.226Z,30.34
2023-03-19T11:43:30.845Z,30.82
2023-03-19T11:46:20.951Z,30.77
2023-03-19T11:48:58.320Z,31.12
2023-03-19T11:52:00.360Z,31.42
2023-03-19T11:55:18.195Z,31.46
2023-03-19T11:58:26.439Z,32.11
2023-03-19T12:01:14.740Z,32.12
2023-03-19T12:04:17.112Z,31.59
2023-03-19T12:07:00.729Z,32.27
2023-03-19T12:09:51.669Z,32.36
2023-03-19T12:12:55.334Z,32.09
2023-03-19T12:15:44.931Z,31.79
2023-03-19T12:18:59.515Z,31.73
2023-03-19T12:21:50.571Z,31.45
2023-03-19T12:24:36.332Z,31.54
2023-03-19T12:27:48.941Z,31.34
2023-03-19T12:30:44.983Z,31.18
2023-03-19T12:33:36.683Z,30.84
2023-03-19T12:36:17.466Z,30.97
2023-03-19T12:39:10.676Z,31.10
2023-03-19T12:41:49.313Z,31.25
2023-03-19T12:44:33.543Z,30.81
2023-03-19T12:47:04.248Z,31.00
2023-03-19T12:49:42.355Z,30.85
2023-03-19T12:52:25.207Z,31.12
2023-03-19T12:55:15.368Z,31.38
2023-03-19T12:58:08.493Z,31.38
2023-03-19T13:01:14.233Z,31.25
2023-03-19T13:04:13.129Z,31.35
2023-03-19T13:06:53.660Z,31.32
2023-03-19T13:09:45.567Z,31.21
2023-03-19T13:12:24.743Z,31.10
2023-03-19T13:15:07.575Z,31.16
2023-03-19T13:18:32.648Z,31.07
2023-03-19T13:21:27.796Z,31.16
2023-03-19T13:24:20.784Z,31.56
2023-03-19T13:26:54.391Z,31.78
2023-03-19T13:29:28.141Z,31.89
2023-03-19T13:32:22.434Z,31.72
2023-03-19T13:35:33.353Z,31.38
2023-03-19T13:38:18.259Z,31.53
2023-03-19T13:40:54.247Z,31.60
2023-03-19T13:43:29.431Z,31.59
2023-03-19T13:46:16.842Z,31.40
2023-03-19T13:48:45.296Z,31.11
2023-03-19T13:51:21.956Z,31.11
2023-03-19T13:54:17.681Z,31.13
2023-03-19T13:57:20.592Z,31.08
2023-03-19T13:59:50.621Z,31.48
2023-03-19T14:02:21.971Z,31.68
2023-03-19T14:05:17.147Z,31.23
2023-03-19T14:07:53.578Z,31.34
2023-03-19T14:10:33.260Z,31.49
2023-03-19T14:13:19.166Z,31.67
2023-03-19T14:15:51.932Z,31.82
2023-03-19T14:18:29.408Z,31.87
2023-03-19T14:21:12.825Z,31.82
2023-03-19T14:23:54.931Z,31.46
2023-03-19T14:26:25.304Z,31.41
2023-03-19T14:29:04.572Z,31.75
2023-03-19T14:31:50.513Z,32.03
2023-03-19T14:34:37.132Z,32.14
2023-03-19T14:37:40.044Z,32.13
2023-03-19T14:40:25.904Z,32.22
2023-03-19T14:43:51.183Z,32.14
2023-03-19T14:47:36.323Z,32.19
2023-03-19T14:50:24.899Z,32.35
2023-03-19T14:53:14.308Z,32.14
2023-03-19T14:55:42.374Z,32.40
2023-03-19T14:58:12.274Z,32.49
2023-03-19T15:00:50.454Z,32.41
2023-03-19T15:03:33.869Z,32.45
2023-03-19T15:06:06.230Z,32.71
2023-03-19T15:08:39.389Z,32.83
2023-03-19T15:11:15.190Z,32.83
2023-03-19T15:14:14.631Z,32.84
2023-03-19T15:17:12.069Z,33.11
2023-03-19T15:19:41.068Z,33.18
2023-03-19T15:22:21.365Z,33.17
2023-03-19T15:24:56.405Z,33.13
2023-03-19T15:27:32.144Z,33.00
2023-03-19T15:30:14.237Z,33.11
2023-03-19T15:33:07.521Z,33.38
2023-03-19T15:35:40.327Z,33.60
2023-03-19T15:38:15.276Z,33.61
2023-03-19T15:40:46.328Z,33.50
2023-03-19T15:43:25.168Z,33.43
2023-03-19T15:45:55.612Z,33.56
2023-03-19T15:48:36.052Z,33.70
2023-03-19T15:51:07.191Z,33.77
2023-03-19T15:53:38.637Z,33.81
2023-03-19T15:56:08.038Z,33.98
2023-03-19T15:58:46.787Z,34.08
2023-03-19T16:01:23.993Z,34.28
2023-03-19T16:04:04.658Z,34.35
2023-03-19T16:06:40.617Z,34.31
2023-03-19T16:09:22.810Z,34.34
2023-03-19T16:11:57.984Z,34.43
2023-03-19T16:14:40.634Z,34.53
2023-03-19T16:17:22.485Z,34.54
2023-03-19T16:20:00.269Z,34.64
2023-03-19T16:22:33.097Z,34.94
2023-03-19T16:25:13.615Z,35.20
2023-03-19T16:27:48.921Z,35.26
2023-03-19T16:30:33.363Z,35.42
2023-03-19T16:33:06.971Z,35.58
2023-03-19T16:35:38.946Z,35.72
2023-03-19T16:38:23.293Z,35.72
2023-03-19T16:41:15.682Z,35.62
2023-03-19T16:43:46.256Z,35.77
2023-03-19T16:46:19.214Z,35.73
2023-03-19T16:48:47.821Z,35.84
2023-03-19T16:51:21.675Z,35.83
2023-03-19T16:53:50.020Z,36.12
2023-03-19T16:56:20.496Z,36.15
2023-03-19T16:58:48.902Z,36.27
2023-03-19T17:01:22.228Z,36.50
2023-03-19T17:03:53.641Z,36.86
2023-03-19T17:06:29.094Z,37.14
2023-03-19T17:08:59.456Z,37.26
2023-03-19T17:11:38.323Z,37.66
2023-03-19T17:14:22.001Z,38.12
2023-03-19T17:16:51.330Z,38.56
2023-03-19T17:19:40.979Z,39.03
2023-03-19T17:22:17.141Z,39.57
2023-03-19T17:24:45.891Z,40.21
2023-03-19T17:27:14.914Z,40.70
2023-03-19T17:29:43.753Z,40.95
2023-03-19T17:32:24.208Z,41.37
2023-03-19T17:34:57.644Z,41.57
2023-03-19T17:37:30.917Z,41.75
2023-03-19T17:39:59.465Z,42.17
2023-03-19T17:42:30.187Z,42.33
2023-03-19T17:45:03.601Z,42.56
2023-03-19T17:47:38.587Z,43.10
2023-03-19T17:50:18.008Z,43.56
2023-03-19T17:52:48.327Z,43.98
2023-03-19T17:55:27.118Z,44.21
2023-03-19T17:57:57.774Z,44.54
2023-03-19T18:00:25.929Z,44.50
2023-03-19T18:02:57.611Z,44.67
2023-03-19T18:05:26.873Z,44.87
2023-03-19T18:07:57.700Z,45.18
2023-03-19T18:10:34.127Z,45.40
2023-03-19T18:13:07.364Z,45.63
2023-03-19T18:15:42.934Z,45.92
2023-03-19T18:18:22.366Z,46.16
2023-03-19T18:20:54.121Z,46.16
2023-03-19T18:23:33.927Z,46.18
2023-03-19T18:26:09.569Z,46.50
2023-03-19T18:28:39.382Z,46.58
2023-03-19T18:31:31.599Z,46.80
2023-03-19T18:34:08.012Z,47.02
2023-03-19T18:36:39.621Z,47.14
2023-03-19T18:39:16.426Z,47.14
2023-03-19T18:41:47.368Z,47.33
2023-03-19T18:44:19.382Z,47.59
2023-03-19T18:46:48.915Z,47.79
2023-03-19T18:49:25.056Z,47.89
2023-03-19T18:52:04.815Z,48.16
2023-03-19T18:54:36.089Z,48.46
2023-03-19T18:57:10.566Z,48.78
2023-03-19T18:59:47.222Z,48.76
2023-03-19T19:02:44.723Z,49.06
2023-03-19T19:05:24.169Z,49.30
2023-03-19T19:07:59.162Z,49.43
2023-03-19T19:10:39.015Z,49.72
2023-03-19T19:13:28.803Z,49.89
2023-03-19T19:16:00.114Z,49.92
2023-03-19T19:18:34.201Z,50.05
2023-03-19T19:21:07.707Z,50.02
2023-03-19T19:23:40.453Z,50.02
2023-03-19T19:26:27.122Z,49.97
2023-03-19T19:29:00.379Z,50.22
2023-03-19T19:31:36.582Z,50.41
2023-03-19T19:34:05.268Z,50.69
2023-03-19T19:36:34.172Z,50.79
2023-03-19T19:39:08.612Z,50.67
2023-03-19T19:41:57.453Z,50.81
2023-03-19T19:44:33.844Z,50.99
2023-03-19T19:47:19.837Z,51.02
2023-03-19T19:50:05.689Z,51.19
2023-03-19T19:52:36.143Z,51.37
2023-03-19T19:55:06.688Z,51.39
2023-03-19T19:57:43.631Z,51.62
2023-03-19T20:00:32.576Z,51.74
2023-03-19T20:03:04.665Z,51.69
2023-03-19T20:05:33.799Z,51.81
2023-03-19T20:08:02.815Z,51.91
2023-03-19T20:10:31.718Z,51.93
2023-03-19T20:13:04.226Z,52.20
2023-03-19T20:15:37.088Z,52.60
2023-03-19T20:18:23.658Z,52.68
2023-03-19T20:20:56.359Z,53.06
2023-03-19T20:23:37.301Z,53.35
2023-03-19T20:26:07.342Z,53.38
2023-03-19T20:28:46.906Z,53.56
2023-03-19T20:31:30.766Z,53.75
2023-03-19T20:34:05.314Z,53.98
2023-03-19T20:36:37.841Z,54.02
2023-03-19T20:39:10.201Z,54.08
2023-03-19T20:41:47.790Z,54.30
2023-03-19T20:44:26.630Z,54.61
2023-03-19T20:50:25.100Z,54.79
2023-03-19T20:52:56.725Z,54.83
2023-03-19T20:55:37.627Z,55.00
2023-03-19T20:58:31.881Z,55.30
2023-03-19T21:01:15.042Z,55.28
2023-03-19T21:03:51.927Z,55.40
2023-03-19T21:06:28.107Z,55.48
2023-03-19T21:09:06.966Z,55.58
2023-03-19T21:11:45.382Z,55.73
2023-03-19T21:14:16.201Z,55.81
2023-03-19T21:16:51.076Z,55.97
2023-03-19T21:19:28.387Z,56.04
2023-03-19T21:22:02.156Z,56.23
2023-03-19T21:24:34.366Z,56.42
2023-03-19T21:27:04.544Z,56.44
2023-03-19T21:29:35.573Z,56.57
2023-03-19T21:32:13.600Z,56.60
2023-03-19T21:34:45.074Z,56.70
2023-03-19T21:37:19.732Z,56.78
2023-03-19T21:39:49.714Z,56.85
2023-03-19T21:42:26.092Z,56.93
2023-03-19T21:44:59.302Z,57.12
2023-03-19T21:47:30.085Z,57.30
2023-03-19T21:50:00.058Z,57.43
2023-03-19T21:52:49.862Z,57.46
2023-03-19T21:55:27.518Z,57.51
2023-03-19T21:58:08.088Z,57.72
2023-03-19T22:00:49.814Z,57.93
2023-03-19T22:03:32.377Z,58.09
2023-03-19T22:06:04.791Z,58.19
2023-03-19T22:08:38.837Z,58.31
2023-03-19T22:11:21.486Z,58.35
2023-03-19T22:13:55.600Z,58.60
2023-03-19T22:16:28.518Z,58.68
2023-03-19T22:19:23.395Z,58.86
2023-03-19T22:22:05.785Z,59.01
2023-03-19T22:24:49.585Z,59.38
2023-03-19T22:27:30.087Z,59.44
2023-03-19T22:30:47.197Z,59.52
2023-03-19T22:33:43.132Z,59.77
2023-03-19T22:36:22.236Z,59.73
2023-03-19T22:39:08.850Z,59.67
2023-03-19T22:41:47.896Z,59.98
2023-03-19T22:44:35.916Z,59.95
2023-03-19T22:47:21.740Z,59.89
2023-03-19T22:50:08.447Z,60.08
2023-03-19T22:52:40.622Z,60.23
2023-03-19T22:55:22.888Z,60.33
2023-03-19T22:58:04.091Z,60.42
2023-03-19T23:00:45.001Z,60.60
2023-03-19T23:03:35.361Z,60.62
2023-03-19T23:06:28.792Z,60.79
2023-03-19T23:09:02.521Z,60.88
2023-03-19T23:11:31.221Z,60.94
2023-03-19T23:14:06.939Z,60.93
2023-03-19T23:16:42.950Z,61.10
2023-03-19T23:19:38.960Z,61.14
2023-03-19T23:22:13.982Z,61.07
2023-03-19T23:24:48.149Z,61.25
2023-03-19T23:27:26.924Z,61.25
2023-03-19T23:29:58.494Z,61.27
2023-03-19T23:32:32.949Z,61.44
2023-03-19T23:35:16.024Z,61.52
2023-03-19T23:37:49.232Z,61.59
2023-03-19T23:40:20.576Z,61.67
2023-03-19T23:42:55.279Z,61.49
2023-03-19T23:45:41.504Z,61.66
2023-03-19T23:48:20.092Z,61.61
2023-03-19T23:50:54.623Z,61.62
2023-03-19T23:53:30.679Z,61.61
2023-03-19T23:56:04.538Z,61.63
2023-03-19T23:58:42.629Z,61.69
